createdAt,value
2023-05-19T00:01:29.586Z,101457.06
2023-05-19T00:03:59.158Z,101457.94
2023-05-19T00:06:31.972Z,101456.97
2023-05-19T00:09:02.606Z,101454.34
2023-05-19T00:11:30.516Z,101453.34
2023-05-19T00:14:00.140Z,101458.31
2023-05-19T00:16:28.506Z,101452.28
2023-05-19T00:18:57.238Z,101451.44
2023-05-19T00:21:24.233Z,101456.59
2023-05-19T00:23:51.087Z,101463.47
2023-05-19T00:26:18.056Z,101452.28
2023-05-19T00:28:54.484Z,101464.34
2023-05-19T00:31:21.614Z,101454.72
2023-05-19T00:33:48.413Z,101461.47
2023-05-19T00:36:15.405Z,101470.91
2023-05-19T00:38:42.236Z,101466.53
2023-05-19T00:41:09.223Z,101463.81
2023-05-19T00:43:36.120Z,101460.22
2023-05-19T00:46:03.600Z,101462.66
2023-05-19T00:48:30.452Z,101461.88
2023-05-19T00:51:02.424Z,101461.72
2023-05-19T00:53:29.792Z,101462.41
2023-05-19T00:55:57.950Z,101464.06
2023-05-19T00:58:29.222Z,101460.56
2023-05-19T01:01:04.063Z,101461.31
2023-05-19T01:03:32.687Z,101462.06
2023-05-19T01:06:05.193Z,101460.13
2023-05-19T01:08:33.471Z,101458.28
2023-05-19T01:11:00.596Z,101452.94
2023-05-19T01:13:28.799Z,101460.56
2023-05-19T01:16:30.813Z,101457.78
2023-05-19T01:19:11.153Z,101453.50
2023-05-19T01:22:22.936Z,101466.25
2023-05-19T01:25:23.293Z,101461.06
2023-05-19T01:28:30.752Z,101467.97
2023-05-19T01:31:00.167Z,101462.88
2023-05-19T01:33:29.493Z,101458.28
2023-05-19T01:35:56.549Z,101460.75
2023-05-19T01:38:25.154Z,101464.19
2023-05-19T01:40:52.499Z,101457.00
2023-05-19T01:43:22.069Z,101450.72
2023-05-19T01:45:49.142Z,101461.09
2023-05-19T01:48:16.647Z,101464.63
2023-05-19T01:50:45.650Z,101460.50
2023-05-19T01:53:12.725Z,101463.06
2023-05-19T01:55:49.656Z,101460.41
2023-05-19T01:58:43.144Z,101462.03
2023-05-19T02:01:25.952Z,101467.06
2023-05-19T02:04:18.775Z,101460.91
2023-05-19T02:07:03.825Z,101462.47
2023-05-19T02:09:53.452Z,101465.72
2023-05-19T02:12:29.642Z,101462.25
2023-05-19T02:15:06.926Z,101457.88
2023-05-19T02:17:36.758Z,101450.97
2023-05-19T02:20:04.714Z,101450.22
2023-05-19T02:22:31.997Z,101451.09
2023-05-19T02:24:58.874Z,101447.59
2023-05-19T02:27:26.407Z,101452.63
2023-05-19T02:29:53.725Z,101451.03
2023-05-19T02:32:21.342Z,101448.56
2023-05-19T02:34:48.988Z,101451.22
2023-05-19T02:37:16.385Z,101453.97
2023-05-19T02:39:43.448Z,101445.47
2023-05-19T02:42:12.119Z,101446.25
2023-05-19T02:44:39.002Z,101444.44
2023-05-19T02:47:05.964Z,101445.50
2023-05-19T02:49:36.141Z,101443.13
2023-05-19T02:52:04.243Z,101432.91
2023-05-19T02:54:31.773Z,101444.00
2023-05-19T02:56:59.114Z,101432.22
2023-05-19T02:59:26.102Z,101436.09
2023-05-19T03:01:55.674Z,101443.94
2023-05-19T03:04:22.766Z,101441.44
2023-05-19T03:06:50.249Z,101432.16
2023-05-19T03:09:17.199Z,101439.66
2023-05-19T03:11:44.165Z,101444.13
2023-05-19T03:14:12.144Z,101437.22
2023-05-19T03:16:41.341Z,101443.06
2023-05-19T03:19:09.241Z,101430.06
2023-05-19T03:21:36.752Z,101439.81
2023-05-19T03:24:03.926Z,101441.88
2023-05-19T03:26:30.790Z,101437.84
2023-05-19T03:29:00.281Z,101437.91
2023-05-19T03:31:27.325Z,101436.19
2023-05-19T03:33:54.455Z,101441.44
2023-05-19T03:36:22.693Z,101449.41
2023-05-19T03:38:49.831Z,101448.06
2023-05-19T03:41:16.799Z,101456.25
2023-05-19T03:43:43.663Z,101454.31
2023-05-19T03:46:10.687Z,101449.75
2023-05-19T03:48:57.454Z,101451.16
2023-05-19T03:51:44.378Z,101449.09
2023-05-19T03:54:27.537Z,101457.28
2023-05-19T03:56:54.570Z,101455.00
2023-05-19T03:59:21.435Z,101461.31
2023-05-19T04:01:48.886Z,101461.53
2023-05-19T04:04:15.857Z,101460.91
2023-05-19T04:06:42.856Z,101462.13
2023-05-19T04:39:45.464Z,101447.78
2023-05-19T04:42:14.187Z,101444.81
2023-05-19T04:44:41.432Z,101447.88
2023-05-19T04:47:09.197Z,101454.31
2023-05-19T04:49:39.003Z,101451.28
2023-05-19T15:23:56.585Z,101441.50
2023-05-19T15:26:23.709Z,101426.69
2023-05-19T15:28:52.486Z,101430.25
2023-05-19T15:31:19.567Z,101435.34
2023-05-19T15:33:47.308Z,101428.47
2023-05-19T15:36:16.472Z,101435.50
2023-05-19T15:38:43.499Z,101431.16
2023-05-19T15:41:10.671Z,101436.41
2023-05-19T15:43:37.660Z,101440.84
2023-05-19T15:46:05.208Z,101433.13
2023-05-19T15:48:32.701Z,101442.78
2023-05-19T15:51:01.434Z,101441.06
2023-05-19T15:53:28.427Z,101443.59
2023-05-19T15:55:57.330Z,101439.16
2023-05-19T15:58:24.241Z,101442.69
2023-05-19T16:00:51.366Z,101435.66
2023-05-19T16:03:18.266Z,101435.59
2023-05-19T16:05:45.447Z,101433.81
2023-05-19T16:08:12.418Z,101428.44
2023-05-19T16:10:39.437Z,101442.41
2023-05-19T16:13:06.324Z,101435.53
2023-05-19T16:15:33.221Z,101437.22
2023-05-19T16:18:00.246Z,101439.03
2023-05-19T16:20:29.685Z,101437.38
2023-05-19T16:22:57.014Z,101429.66
2023-05-19T16:25:24.252Z,101431.47
2023-05-19T16:27:51.570Z,101426.34
2023-05-19T16:30:18.608Z,101424.69
2023-05-19T16:32:45.551Z,101427.31
2023-05-19T16:35:12.518Z,101423.00
2023-05-19T16:37:39.782Z,101423.03
2023-05-19T16:40:07.182Z,101423.00
2023-05-19T16:42:34.076Z,101423.00
2023-05-19T16:45:01.447Z,101415.13
2023-05-19T16:47:28.799Z,101420.31
2023-05-19T16:49:55.814Z,101415.13
2023-05-19T16:52:23.040Z,101418.59
2023-05-19T16:54:49.903Z,101421.16
2023-05-19T16:57:16.779Z,101416.81
2023-05-19T16:59:43.733Z,101419.41
2023-05-19T17:02:10.654Z,101415.91
2023-05-19T17:04:37.531Z,101410.72
2023-05-19T17:07:04.535Z,101419.38
2023-05-19T17:09:31.466Z,101416.72
2023-05-19T17:11:58.399Z,101416.72
2023-05-19T17:14:25.247Z,101426.28
2023-05-19T17:16:52.608Z,101420.25
2023-05-19T17:19:19.489Z,101418.59
2023-05-19T17:21:46.519Z,101416.00
2023-05-19T17:24:13.490Z,101417.78
2023-05-19T17:26:40.382Z,101419.44
2023-05-19T17:29:07.344Z,101414.16
2023-05-19T17:31:34.240Z,101417.59
2023-05-19T17:34:01.153Z,101414.06
2023-05-19T17:36:34.539Z,101420.13
2023-05-19T17:39:01.809Z,101414.06
2023-05-19T17:41:28.619Z,101423.59
2023-05-19T17:44:01.930Z,101425.28
2023-05-19T17:46:34.703Z,101417.47
2023-05-19T17:49:02.032Z,101413.91
2023-05-19T17:51:30.014Z,101417.31
2023-05-19T17:54:00.764Z,101423.41
2023-05-19T17:56:32.164Z,101418.28
2023-05-19T17:59:00.164Z,101419.22
2023-05-19T18:01:27.349Z,101418.38
2023-05-19T18:03:54.682Z,101414.91
2023-05-19T18:06:22.501Z,101420.06
2023-05-19T18:08:52.749Z,101418.25
2023-05-19T18:11:21.335Z,101419.94
2023-05-19T18:13:48.386Z,101417.34
2023-05-19T18:16:15.253Z,101415.53
2023-05-19T18:18:50.666Z,101410.28
2023-05-19T18:21:18.138Z,101414.56
2023-05-19T18:23:45.968Z,101411.09
2023-05-19T18:26:13.692Z,101408.44
2023-05-19T18:28:41.498Z,101411.84
2023-05-19T18:31:09.326Z,101410.06
2023-05-19T18:33:36.376Z,101410.94
2023-05-19T18:36:03.293Z,101416.09
2023-05-19T18:38:30.173Z,101416.97
2023-05-19T18:40:57.156Z,101416.03
2023-05-19T19:05:04.331Z,101437.53
2023-05-19T19:07:34.183Z,101434.91
2023-05-19T19:10:08.454Z,101423.63
2023-05-19T19:13:00.949Z,101427.09
2023-05-19T19:15:28.402Z,101427.03
2023-05-19T19:17:55.595Z,101429.66
2023-05-19T19:20:22.731Z,101426.97
2023-05-19T19:22:50.280Z,101422.63
2023-05-19T19:25:17.188Z,101421.75
2023-05-19T19:27:44.136Z,101418.28
2023-05-19T19:30:11.102Z,101429.56
2023-05-19T19:32:38.610Z,101418.22
2023-05-19T19:35:06.082Z,101421.59
2023-05-19T19:37:33.704Z,101418.78
2023-05-19T19:40:00.813Z,101429.06
2023-05-19T19:42:27.952Z,101426.44
2023-05-19T19:44:55.851Z,101416.03
2023-05-19T19:47:22.724Z,101422.94
2023-05-19T19:49:49.648Z,101426.50
2023-05-19T19:52:17.122Z,101416.75
2023-05-19T19:54:44.695Z,101417.63
2023-05-19T19:57:11.785Z,101421.94
2023-05-19T19:59:38.878Z,101417.59
2023-05-19T20:02:05.693Z,101421.09
2023-05-19T20:04:32.950Z,101426.34
2023-05-19T20:07:09.873Z,101431.56
2023-05-19T20:09:36.672Z,101428.88
2023-05-19T20:12:03.745Z,101424.50
2023-05-19T20:14:31.418Z,101430.53
2023-05-19T20:21:46.204Z,101427.00
2023-05-19T20:28:24.378Z,101432.19
2023-05-19T20:30:52.102Z,101444.34
2023-05-19T20:33:20.310Z,101445.22
2023-05-19T20:35:52.214Z,101442.47
2023-05-19T20:38:19.277Z,101446.94
2023-05-19T20:40:48.180Z,101441.72
2023-05-19T20:43:15.609Z,101448.50
2023-05-19T20:45:45.899Z,101445.06
2023-05-19T20:48:16.389Z,101454.69
2023-05-19T20:50:45.067Z,101439.88
2023-05-19T20:53:11.985Z,101449.41
2023-05-19T20:55:39.556Z,101442.44
2023-05-19T21:01:08.012Z,101443.31
2023-05-19T21:03:35.520Z,101454.59
2023-05-19T21:06:02.469Z,101451.91
2023-05-19T21:08:29.902Z,101449.25
2023-05-19T21:10:56.764Z,101456.25
2023-05-19T21:13:24.850Z,101452.75
2023-05-19T21:15:52.376Z,101451.84
2023-05-19T21:18:19.439Z,101458.78
2023-05-19T21:20:46.454Z,101462.22
2023-05-19T21:23:13.359Z,101459.66
2023-05-19T21:25:40.796Z,101454.41
2023-05-19T21:28:09.535Z,101447.34
2023-05-19T22:08:02.556Z,101465.88
2023-05-19T22:10:29.566Z,101458.88
2023-05-19T22:12:57.479Z,101452.81
2023-05-19T22:15:24.430Z,101461.47
2023-05-19T22:17:51.268Z,101457.09
2023-05-19T22:20:21.419Z,101462.25
2023-05-19T22:22:48.348Z,101456.16
2023-05-19T22:25:15.370Z,101462.25
2023-05-19T22:27:42.192Z,101455.38
2023-05-19T22:30:09.315Z,101453.56
2023-05-19T22:32:36.478Z,101453.59
2023-05-19T22:35:03.769Z,101442.31
2023-05-19T22:37:30.645Z,101444.91
2023-05-19T22:40:01.438Z,101447.31
2023-05-19T22:42:28.718Z,101442.22
2023-05-19T22:44:55.851Z,101442.22
2023-05-19T22:47:22.730Z,101448.34
2023-05-19T22:49:50.391Z,101454.25
2023-05-19T22:52:17.612Z,101453.50
2023-05-19T22:54:44.602Z,101439.56
2023-05-19T22:57:11.725Z,101448.22
2023-05-19T22:59:38.584Z,101434.31
2023-05-19T23:02:06.058Z,101448.22
2023-05-19T23:04:33.994Z,101438.66
2023-05-19T23:07:01.453Z,101443.06
2023-05-19T23:09:28.441Z,101446.47
2023-05-19T23:11:55.288Z,101443.06
2023-05-19T23:14:22.177Z,101444.59
2023-05-19T23:16:49.247Z,101455.84
2023-05-19T23:19:17.494Z,101446.19
2023-05-19T23:21:48.125Z,101454.88
2023-05-19T23:24:16.044Z,101441.16
2023-05-19T23:26:46.006Z,101459.47
2023-05-19T23:29:13.522Z,101448.09
2023-05-19T23:31:44.515Z,101455.78
2023-05-19T23:34:11.574Z,101435.00
2023-05-19T23:36:38.432Z,101415.13
2023-05-19T23:39:05.258Z,101436.94
2023-05-19T23:41:32.382Z,101428.25
2023-05-19T23:43:59.302Z,101444.81
2023-05-19T23:46:26.446Z,101443.13
2023-05-19T23:48:53.375Z,101449.13
2023-05-19T23:51:20.258Z,101450.09
2023-05-19T23:53:47.202Z,101446.53
2023-05-19T23:56:14.682Z,101453.38
2023-05-19T23:58:41.709Z,101442.13
